IWY234 MDSD-MBPV
Flight info
| Callsign | IWY234 |
|---|---|
| Flight time | 1h 18m |
| Altitude | 14000 |
| Route | CDO A554 PTA L463 PVN |
| Aircraft | AT76/M-SDFGHIRWY/LB1 |
Departure
| Time | 2026-05-04 19:43 |
|---|---|
| Airport | Las Américas International Airport (MDSD) |
Arrival
| Time | 2026-05-04 21:01 |
|---|---|
| Airport | Providenciales International Airport (MBPV) |
| Time | Latitude | Longitude | Altitude | Speed | Heading |
|---|---|---|---|---|---|
| 2026-05-04 19:00 | 18.43527 | -69.67644 | 52 ft | 0 kts | 296° |
| 2026-05-04 19:35 | 18.43535 | -69.67646 | 52 ft | 1 kts | 7° |
| 2026-05-04 19:36 | 18.43540 | -69.67633 | 56 ft | 3 kts | 69° |
| 2026-05-04 19:36 | 18.43549 | -69.67608 | 55 ft | 4 kts | 69° |
| 2026-05-04 19:36 | 18.43566 | -69.67588 | 53 ft | 4 kts | 26° |
| 2026-05-04 19:36 | 18.43607 | -69.67596 | 57 ft | 9 kts | 338° |
| 2026-05-04 19:37 | 18.43674 | -69.67624 | 56 ft | 11 kts | 339° |
| 2026-05-04 19:37 | 18.43745 | -69.67652 | 56 ft | 11 kts | 338° |
| 2026-05-04 19:37 | 18.43822 | -69.67684 | 55 ft | 12 kts | 339° |
| 2026-05-04 19:37 | 18.43904 | -69.67718 | 55 ft | 13 kts | 339° |
| 2026-05-04 19:38 | 18.43989 | -69.67752 | 54 ft | 13 kts | 339° |
| 2026-05-04 19:38 | 18.44075 | -69.67787 | 54 ft | 13 kts | 340° |
| 2026-05-04 19:38 | 18.44138 | -69.67757 | 53 ft | 9 kts | 64° |
| 2026-05-04 19:38 | 18.44158 | -69.67704 | 52 ft | 7 kts | 69° |
| 2026-05-04 19:39 | 18.44172 | -69.67664 | 52 ft | 5 kts | 69° |
| 2026-05-04 19:39 | 18.44185 | -69.67629 | 51 ft | 5 kts | 69° |
| 2026-05-04 19:39 | 18.44197 | -69.67597 | 52 ft | 4 kts | 66° |
| 2026-05-04 19:39 | 18.44220 | -69.67563 | 52 ft | 9 kts | 34° |
| 2026-05-04 19:40 | 18.44274 | -69.67537 | 51 ft | 8 kts | 25° |
| 2026-05-04 19:40 | 18.44296 | -69.67526 | 53 ft | 0 kts | 24° |
| 2026-05-04 19:40 | 18.44310 | -69.67520 | 53 ft | 10 kts | 25° |
| 2026-05-04 19:40 | 18.44361 | -69.67477 | 48 ft | 8 kts | 57° |
| 2026-05-04 19:41 | 18.44365 | -69.67417 | 50 ft | 9 kts | 120° |
| 2026-05-04 19:41 | 18.44332 | -69.67397 | 53 ft | 0 kts | 161° |
| 2026-05-04 19:42 | 18.44324 | -69.67395 | 53 ft | 3 kts | 161° |
| 2026-05-04 19:42 | 18.44322 | -69.67394 | 53 ft | 0 kts | 161° |
| 2026-05-04 19:42 | 18.44256 | -69.67369 | 53 ft | 34 kts | 160° |
| 2026-05-04 19:43 | 18.43856 | -69.67222 | 54 ft | 89 kts | 159° |
| 2026-05-04 19:43 | 18.43106 | -69.66947 | 83 ft | 135 kts | 163° |
| 2026-05-04 19:43 | 18.42176 | -69.66671 | 568 ft | 140 kts | 163° |
| 2026-05-04 19:43 | 18.41204 | -69.66450 | 1167 ft | 144 kts | 166° |
| 2026-05-04 19:44 | 18.40224 | -69.66273 | 1775 ft | 143 kts | 160° |
| 2026-05-04 19:44 | 18.39274 | -69.65944 | 2328 ft | 143 kts | 153° |
| 2026-05-04 19:44 | 18.38355 | -69.65524 | 2884 ft | 144 kts | 146° |
| 2026-05-04 19:44 | 18.37582 | -69.64918 | 3489 ft | 138 kts | 127° |
| 2026-05-04 19:45 | 18.37115 | -69.64005 | 3888 ft | 147 kts | 102° |
| 2026-05-04 19:45 | 18.37173 | -69.62935 | 4295 ft | 156 kts | 69° |
| 2026-05-04 19:45 | 18.37565 | -69.61859 | 4820 ft | 157 kts | 69° |
| 2026-05-04 19:45 | 18.37999 | -69.60738 | 4895 ft | 185 kts | 67° |
| 2026-05-04 19:46 | 18.38566 | -69.59370 | 4903 ft | 204 kts | 67° |
| 2026-05-04 19:46 | 18.39163 | -69.57932 | 4764 ft | 227 kts | 66° |
| 2026-05-04 19:46 | 18.40013 | -69.56536 | 4795 ft | 235 kts | 41° |
| 2026-05-04 19:46 | 18.41474 | -69.55940 | 5382 ft | 220 kts | 11° |
| 2026-05-04 19:47 | 18.42948 | -69.55872 | 6062 ft | 205 kts | 1° |
| 2026-05-04 19:47 | 18.44322 | -69.56033 | 6696 ft | 193 kts | 354° |
| 2026-05-04 19:47 | 18.45598 | -69.56348 | 7294 ft | 184 kts | 349° |
| 2026-05-04 19:47 | 18.46797 | -69.56726 | 7850 ft | 176 kts | 347° |
| 2026-05-04 19:48 | 18.47946 | -69.57112 | 8352 ft | 172 kts | 347° |
| 2026-05-04 19:48 | 18.49121 | -69.57503 | 8562 ft | 186 kts | 348° |
| 2026-05-04 19:48 | 18.50412 | -69.57906 | 8759 ft | 197 kts | 348° |
| 2026-05-04 19:48 | 18.51715 | -69.58309 | 9083 ft | 198 kts | 348° |
| 2026-05-04 19:49 | 18.53040 | -69.58726 | 9343 ft | 199 kts | 348° |
| 2026-05-04 19:49 | 18.54372 | -69.59148 | 9597 ft | 200 kts | 348° |
| 2026-05-04 19:49 | 18.55708 | -69.59566 | 9841 ft | 200 kts | 348° |
| 2026-05-04 19:49 | 18.57048 | -69.59984 | 10089 ft | 201 kts | 348° |
| 2026-05-04 19:50 | 18.58392 | -69.60401 | 10326 ft | 202 kts | 348° |
| 2026-05-04 19:50 | 18.59743 | -69.60823 | 10559 ft | 203 kts | 348° |
| 2026-05-04 19:50 | 18.61098 | -69.61248 | 10804 ft | 203 kts | 348° |
| 2026-05-04 19:50 | 18.62457 | -69.61673 | 11039 ft | 204 kts | 348° |
| 2026-05-04 19:51 | 18.63823 | -69.62100 | 11273 ft | 205 kts | 348° |
| 2026-05-04 19:51 | 18.65174 | -69.62521 | 11496 ft | 205 kts | 348° |
| 2026-05-04 19:51 | 18.66548 | -69.62949 | 11718 ft | 206 kts | 348° |
| 2026-05-04 19:51 | 18.67926 | -69.63374 | 11935 ft | 207 kts | 348° |
| 2026-05-04 19:52 | 18.69309 | -69.63798 | 12149 ft | 207 kts | 348° |
| 2026-05-04 19:52 | 18.70697 | -69.64221 | 12360 ft | 208 kts | 348° |
| 2026-05-04 19:52 | 18.72092 | -69.64645 | 12571 ft | 209 kts | 348° |
| 2026-05-04 19:52 | 18.73493 | -69.65073 | 12785 ft | 209 kts | 348° |
| 2026-05-04 19:53 | 18.74894 | -69.65501 | 12992 ft | 210 kts | 348° |
| 2026-05-04 19:53 | 18.76284 | -69.65925 | 13193 ft | 211 kts | 348° |
| 2026-05-04 19:53 | 18.77697 | -69.66357 | 13388 ft | 211 kts | 348° |
| 2026-05-04 19:53 | 18.79112 | -69.66789 | 13583 ft | 212 kts | 348° |
| 2026-05-04 19:54 | 18.80530 | -69.67223 | 13757 ft | 213 kts | 348° |
| 2026-05-04 19:54 | 18.81955 | -69.67659 | 13935 ft | 213 kts | 348° |
| 2026-05-04 19:54 | 18.83392 | -69.68099 | 14027 ft | 218 kts | 348° |
| 2026-05-04 19:54 | 18.84870 | -69.68546 | 14069 ft | 224 kts | 348° |
| 2026-05-04 19:55 | 18.86386 | -69.69003 | 14083 ft | 229 kts | 348° |
| 2026-05-04 19:55 | 18.87935 | -69.69463 | 14091 ft | 233 kts | 348° |
| 2026-05-04 19:55 | 18.89470 | -69.69994 | 14097 ft | 238 kts | 340° |
| 2026-05-04 19:55 | 18.90975 | -69.70766 | 14099 ft | 242 kts | 336° |
| 2026-05-04 19:56 | 18.92475 | -69.71591 | 14100 ft | 244 kts | 336° |
| 2026-05-04 19:56 | 18.93998 | -69.72409 | 14101 ft | 246 kts | 338° |
| 2026-05-04 19:56 | 18.95545 | -69.73192 | 14102 ft | 248 kts | 339° |
| 2026-05-04 19:56 | 18.97112 | -69.73965 | 14099 ft | 249 kts | 339° |
| 2026-05-04 19:57 | 18.98685 | -69.74744 | 14099 ft | 250 kts | 339° |
| 2026-05-04 19:57 | 19.00265 | -69.75520 | 14100 ft | 251 kts | 339° |
| 2026-05-04 19:57 | 19.01851 | -69.76304 | 14099 ft | 252 kts | 339° |
| 2026-05-04 19:57 | 19.03438 | -69.77089 | 14099 ft | 252 kts | 338° |
| 2026-05-04 19:58 | 19.05030 | -69.77874 | 14097 ft | 253 kts | 339° |
| 2026-05-04 19:58 | 19.06622 | -69.78661 | 14100 ft | 253 kts | 339° |
| 2026-05-04 19:58 | 19.08195 | -69.79440 | 14100 ft | 253 kts | 339° |
| 2026-05-04 19:58 | 19.09791 | -69.80230 | 14100 ft | 253 kts | 339° |
| 2026-05-04 19:59 | 19.11389 | -69.81020 | 14100 ft | 253 kts | 339° |
| 2026-05-04 19:59 | 19.12981 | -69.81808 | 14099 ft | 253 kts | 339° |
| 2026-05-04 19:59 | 19.14576 | -69.82596 | 14099 ft | 253 kts | 338° |
| 2026-05-04 19:59 | 19.16168 | -69.83384 | 14100 ft | 253 kts | 338° |
| 2026-05-04 20:00 | 19.17767 | -69.84174 | 14101 ft | 253 kts | 339° |
| 2026-05-04 20:00 | 19.19363 | -69.84964 | 14100 ft | 253 kts | 338° |
| 2026-05-04 20:00 | 19.20955 | -69.85753 | 14100 ft | 253 kts | 338° |
| 2026-05-04 20:00 | 19.22526 | -69.86530 | 14102 ft | 253 kts | 339° |
| 2026-05-04 20:01 | 19.24122 | -69.87321 | 14101 ft | 253 kts | 339° |
| 2026-05-04 20:01 | 19.25715 | -69.88112 | 14101 ft | 253 kts | 338° |
| 2026-05-04 20:01 | 19.27311 | -69.88901 | 14100 ft | 253 kts | 338° |
| 2026-05-04 20:01 | 19.28907 | -69.89693 | 14101 ft | 253 kts | 339° |
| 2026-05-04 20:02 | 19.30501 | -69.90484 | 14101 ft | 253 kts | 338° |
| 2026-05-04 20:02 | 19.32101 | -69.91276 | 14100 ft | 253 kts | 338° |
| 2026-05-04 20:02 | 19.33699 | -69.92067 | 14105 ft | 254 kts | 339° |
| 2026-05-04 20:02 | 19.35302 | -69.92862 | 14100 ft | 254 kts | 338° |
| 2026-05-04 20:03 | 19.36903 | -69.93658 | 14098 ft | 254 kts | 338° |
| 2026-05-04 20:03 | 19.37964 | -69.94187 | 14097 ft | 254 kts | 338° |
| 2026-05-04 20:03 | 19.39565 | -69.94985 | 14098 ft | 253 kts | 339° |
| 2026-05-04 20:03 | 19.41682 | -69.96030 | 14099 ft | 253 kts | 338° |
| 2026-05-04 20:04 | 19.43279 | -69.96824 | 14100 ft | 253 kts | 338° |
| 2026-05-04 20:04 | 19.44877 | -69.97618 | 14102 ft | 253 kts | 339° |
| 2026-05-04 20:04 | 19.45934 | -69.98144 | 14101 ft | 253 kts | 338° |
| 2026-05-04 20:04 | 19.47529 | -69.98937 | 14099 ft | 253 kts | 338° |
| 2026-05-04 20:05 | 19.49127 | -69.99731 | 14100 ft | 253 kts | 338° |
| 2026-05-04 20:05 | 19.50724 | -70.00525 | 14100 ft | 253 kts | 338° |
| 2026-05-04 20:05 | 19.52321 | -70.01320 | 14101 ft | 253 kts | 338° |
| 2026-05-04 20:05 | 19.53916 | -70.02112 | 14100 ft | 253 kts | 338° |
| 2026-05-04 20:06 | 19.55511 | -70.02907 | 14100 ft | 253 kts | 338° |
| 2026-05-04 20:06 | 19.57105 | -70.03700 | 14102 ft | 253 kts | 338° |
| 2026-05-04 20:06 | 19.58699 | -70.04493 | 14099 ft | 253 kts | 338° |
| 2026-05-04 20:06 | 19.60276 | -70.05277 | 14099 ft | 253 kts | 338° |
| 2026-05-04 20:07 | 19.61869 | -70.06072 | 14100 ft | 253 kts | 338° |
| 2026-05-04 20:07 | 19.63463 | -70.06865 | 14101 ft | 253 kts | 338° |
| 2026-05-04 20:07 | 19.65059 | -70.07660 | 14100 ft | 253 kts | 338° |
| 2026-05-04 20:07 | 19.66652 | -70.08454 | 14100 ft | 253 kts | 339° |
| 2026-05-04 20:08 | 19.68245 | -70.09248 | 14101 ft | 253 kts | 338° |
| 2026-05-04 20:08 | 19.69838 | -70.10042 | 14100 ft | 253 kts | 338° |
| 2026-05-04 20:08 | 19.71431 | -70.10836 | 14100 ft | 253 kts | 338° |
| 2026-05-04 20:08 | 19.73003 | -70.11620 | 14101 ft | 253 kts | 338° |
| 2026-05-04 20:09 | 19.74596 | -70.12416 | 14101 ft | 253 kts | 338° |
| 2026-05-04 20:09 | 19.76193 | -70.13212 | 14100 ft | 253 kts | 338° |
| 2026-05-04 20:09 | 19.77787 | -70.14008 | 14100 ft | 253 kts | 338° |
| 2026-05-04 20:09 | 19.79381 | -70.14805 | 14100 ft | 253 kts | 339° |
| 2026-05-04 20:10 | 19.80977 | -70.15600 | 14100 ft | 253 kts | 338° |
| 2026-05-04 20:10 | 19.82550 | -70.16386 | 14100 ft | 253 kts | 338° |
| 2026-05-04 20:10 | 19.84147 | -70.17183 | 14100 ft | 253 kts | 338° |
| 2026-05-04 20:10 | 19.85741 | -70.17980 | 14101 ft | 253 kts | 338° |
| 2026-05-04 20:11 | 19.87333 | -70.18777 | 14100 ft | 253 kts | 338° |
| 2026-05-04 20:11 | 19.88928 | -70.19572 | 14101 ft | 253 kts | 338° |
| 2026-05-04 20:11 | 19.90521 | -70.20369 | 14100 ft | 253 kts | 338° |
| 2026-05-04 20:11 | 19.92114 | -70.21166 | 14100 ft | 253 kts | 339° |
| 2026-05-04 20:12 | 19.93687 | -70.21953 | 14101 ft | 253 kts | 338° |
| 2026-05-04 20:12 | 19.95283 | -70.22752 | 14101 ft | 253 kts | 338° |
| 2026-05-04 20:12 | 19.96874 | -70.23548 | 14100 ft | 253 kts | 338° |
| 2026-05-04 20:12 | 19.98468 | -70.24347 | 14100 ft | 253 kts | 338° |
| 2026-05-04 20:13 | 20.00062 | -70.25146 | 14100 ft | 253 kts | 338° |
| 2026-05-04 20:13 | 20.01656 | -70.25942 | 14100 ft | 253 kts | 338° |
| 2026-05-04 20:13 | 20.03250 | -70.26740 | 14100 ft | 253 kts | 338° |
| 2026-05-04 20:13 | 20.04821 | -70.27528 | 14100 ft | 253 kts | 338° |
| 2026-05-04 20:14 | 20.06414 | -70.28326 | 14100 ft | 253 kts | 338° |
| 2026-05-04 20:14 | 20.08006 | -70.29124 | 14100 ft | 253 kts | 338° |
| 2026-05-04 20:14 | 20.09599 | -70.29922 | 14101 ft | 253 kts | 338° |
| 2026-05-04 20:14 | 20.11191 | -70.30720 | 14100 ft | 253 kts | 338° |
| 2026-05-04 20:15 | 20.12785 | -70.31521 | 14100 ft | 253 kts | 338° |
| 2026-05-04 20:15 | 20.14376 | -70.32317 | 14100 ft | 253 kts | 338° |
| 2026-05-04 20:15 | 20.15968 | -70.33117 | 14100 ft | 253 kts | 338° |
| 2026-05-04 20:15 | 20.17558 | -70.33916 | 14100 ft | 253 kts | 338° |
| 2026-05-04 20:16 | 20.19137 | -70.34707 | 14101 ft | 253 kts | 338° |
| 2026-05-04 20:16 | 20.20728 | -70.35506 | 14100 ft | 253 kts | 338° |
| 2026-05-04 20:16 | 20.22319 | -70.36305 | 14100 ft | 253 kts | 338° |
| 2026-05-04 20:16 | 20.23911 | -70.37104 | 14101 ft | 253 kts | 338° |
| 2026-05-04 20:17 | 20.25505 | -70.37906 | 14100 ft | 253 kts | 338° |
| 2026-05-04 20:17 | 20.27097 | -70.38706 | 14100 ft | 253 kts | 338° |
| 2026-05-04 20:17 | 20.28689 | -70.39506 | 14100 ft | 253 kts | 338° |
| 2026-05-04 20:17 | 20.30282 | -70.40308 | 14100 ft | 253 kts | 338° |
| 2026-05-04 20:18 | 20.31852 | -70.41095 | 14100 ft | 253 kts | 338° |
| 2026-05-04 20:18 | 20.33443 | -70.41896 | 14100 ft | 253 kts | 338° |
| 2026-05-04 20:18 | 20.35035 | -70.42699 | 14100 ft | 253 kts | 338° |
| 2026-05-04 20:18 | 20.36630 | -70.43500 | 14101 ft | 253 kts | 338° |
| 2026-05-04 20:19 | 20.38221 | -70.44302 | 14101 ft | 253 kts | 338° |
| 2026-05-04 20:19 | 20.39814 | -70.45109 | 14100 ft | 253 kts | 338° |
| 2026-05-04 20:19 | 20.41378 | -70.45983 | 14100 ft | 254 kts | 333° |
| 2026-05-04 20:19 | 20.42875 | -70.46965 | 14101 ft | 255 kts | 331° |
| 2026-05-04 20:20 | 20.44366 | -70.47985 | 14100 ft | 255 kts | 331° |
| 2026-05-04 20:20 | 20.45859 | -70.49005 | 14100 ft | 255 kts | 331° |
| 2026-05-04 20:20 | 20.47363 | -70.50004 | 14101 ft | 255 kts | 332° |
| 2026-05-04 20:20 | 20.48874 | -70.50992 | 14101 ft | 255 kts | 332° |
| 2026-05-04 20:21 | 20.50385 | -70.51980 | 14100 ft | 255 kts | 332° |
| 2026-05-04 20:21 | 20.51896 | -70.52966 | 14100 ft | 255 kts | 332° |
| 2026-05-04 20:21 | 20.54927 | -70.54939 | 14101 ft | 255 kts | 332° |
| 2026-05-04 20:22 | 20.56442 | -70.55927 | 14101 ft | 255 kts | 332° |
| 2026-05-04 20:22 | 20.57937 | -70.56902 | 14100 ft | 255 kts | 332° |
| 2026-05-04 20:22 | 20.59449 | -70.57890 | 14101 ft | 255 kts | 332° |
| 2026-05-04 20:22 | 20.60965 | -70.58877 | 14100 ft | 255 kts | 332° |
| 2026-05-04 20:23 | 20.62477 | -70.59864 | 14101 ft | 255 kts | 332° |
| 2026-05-04 20:23 | 20.63988 | -70.60852 | 14101 ft | 255 kts | 332° |
| 2026-05-04 20:23 | 20.65502 | -70.61839 | 14100 ft | 255 kts | 332° |
| 2026-05-04 20:23 | 20.67018 | -70.62830 | 14100 ft | 255 kts | 332° |
| 2026-05-04 20:24 | 20.68531 | -70.63819 | 14100 ft | 255 kts | 332° |
| 2026-05-04 20:24 | 20.70046 | -70.64808 | 14101 ft | 255 kts | 332° |
| 2026-05-04 20:24 | 20.71539 | -70.65782 | 14099 ft | 255 kts | 332° |
| 2026-05-04 20:24 | 20.73053 | -70.66772 | 14100 ft | 255 kts | 332° |
| 2026-05-04 20:25 | 20.74567 | -70.67765 | 14100 ft | 255 kts | 332° |
| 2026-05-04 20:25 | 20.76081 | -70.68752 | 14101 ft | 255 kts | 332° |
| 2026-05-04 20:25 | 20.77593 | -70.69740 | 14100 ft | 255 kts | 332° |
| 2026-05-04 20:25 | 20.79106 | -70.70733 | 14100 ft | 255 kts | 332° |
| 2026-05-04 20:26 | 20.80601 | -70.71711 | 14100 ft | 255 kts | 332° |
| 2026-05-04 20:26 | 20.82110 | -70.72700 | 14101 ft | 255 kts | 332° |
| 2026-05-04 20:26 | 20.83622 | -70.73691 | 14100 ft | 255 kts | 332° |
| 2026-05-04 20:26 | 20.85135 | -70.74680 | 14101 ft | 255 kts | 332° |
| 2026-05-04 20:27 | 20.86649 | -70.75672 | 14100 ft | 255 kts | 332° |
| 2026-05-04 20:27 | 20.88161 | -70.76664 | 14100 ft | 255 kts | 332° |
| 2026-05-04 20:27 | 20.89672 | -70.77653 | 14100 ft | 255 kts | 332° |
| 2026-05-04 20:27 | 20.91183 | -70.78644 | 14100 ft | 255 kts | 332° |
| 2026-05-04 20:28 | 20.92694 | -70.79634 | 14100 ft | 255 kts | 332° |
| 2026-05-04 20:28 | 20.94205 | -70.80626 | 14100 ft | 255 kts | 332° |
| 2026-05-04 20:28 | 20.95715 | -70.81618 | 14100 ft | 255 kts | 332° |
| 2026-05-04 20:28 | 20.97228 | -70.82609 | 14100 ft | 255 kts | 332° |
| 2026-05-04 20:29 | 20.98724 | -70.83592 | 14101 ft | 255 kts | 332° |
| 2026-05-04 20:29 | 21.00237 | -70.84587 | 14100 ft | 255 kts | 332° |
| 2026-05-04 20:29 | 21.01747 | -70.85583 | 14101 ft | 255 kts | 332° |
| 2026-05-04 20:29 | 21.03264 | -70.86572 | 14100 ft | 255 kts | 332° |
| 2026-05-04 20:30 | 21.04778 | -70.87565 | 14100 ft | 255 kts | 332° |
| 2026-05-04 20:30 | 21.06287 | -70.88560 | 14100 ft | 255 kts | 332° |
| 2026-05-04 20:30 | 21.07801 | -70.89554 | 14100 ft | 255 kts | 332° |
| 2026-05-04 20:30 | 21.09310 | -70.90547 | 14101 ft | 255 kts | 332° |
| 2026-05-04 20:31 | 21.10803 | -70.91530 | 14101 ft | 255 kts | 332° |
| 2026-05-04 20:31 | 21.12313 | -70.92522 | 14100 ft | 255 kts | 332° |
| 2026-05-04 20:31 | 21.13823 | -70.93516 | 14100 ft | 255 kts | 332° |
| 2026-05-04 20:31 | 21.15335 | -70.94510 | 14100 ft | 255 kts | 332° |
| 2026-05-04 20:32 | 21.16848 | -70.95506 | 14100 ft | 255 kts | 332° |
| 2026-05-04 20:32 | 21.18359 | -70.96502 | 14101 ft | 255 kts | 332° |
| 2026-05-04 20:32 | 21.19871 | -70.97497 | 14100 ft | 255 kts | 332° |
| 2026-05-04 20:32 | 21.21384 | -70.98494 | 14100 ft | 255 kts | 332° |
| 2026-05-04 20:33 | 21.22896 | -70.99490 | 14100 ft | 255 kts | 332° |
| 2026-05-04 20:33 | 21.24391 | -71.00475 | 14100 ft | 255 kts | 332° |
| 2026-05-04 20:33 | 21.25920 | -71.01484 | 14100 ft | 255 kts | 332° |
| 2026-05-04 20:33 | 21.27411 | -71.02466 | 14101 ft | 255 kts | 332° |
| 2026-05-04 20:34 | 21.28921 | -71.03462 | 14100 ft | 255 kts | 332° |
| 2026-05-04 20:34 | 21.30433 | -71.04462 | 14101 ft | 255 kts | 332° |
| 2026-05-04 20:34 | 21.31944 | -71.05457 | 14100 ft | 255 kts | 332° |
| 2026-05-04 20:34 | 21.33457 | -71.06456 | 14100 ft | 255 kts | 332° |
| 2026-05-04 20:35 | 21.34966 | -71.07453 | 14100 ft | 255 kts | 332° |
| 2026-05-04 20:35 | 21.36477 | -71.08450 | 14100 ft | 255 kts | 332° |
| 2026-05-04 20:35 | 21.37988 | -71.09449 | 14100 ft | 255 kts | 332° |
| 2026-05-04 20:35 | 21.39498 | -71.10447 | 14101 ft | 255 kts | 332° |
| 2026-05-04 20:36 | 21.41008 | -71.11443 | 14100 ft | 255 kts | 332° |
| 2026-05-04 20:36 | 21.42501 | -71.12430 | 14100 ft | 255 kts | 332° |
| 2026-05-04 20:36 | 21.43904 | -71.13593 | 14100 ft | 258 kts | 311° |
| 2026-05-04 20:36 | 21.44757 | -71.15291 | 14103 ft | 261 kts | 293° |
| 2026-05-04 20:37 | 21.45321 | -71.17150 | 14100 ft | 262 kts | 288° |
| 2026-05-04 20:37 | 21.45811 | -71.19038 | 14100 ft | 263 kts | 287° |
| 2026-05-04 20:37 | 21.46301 | -71.20930 | 14100 ft | 263 kts | 288° |
| 2026-05-04 20:37 | 21.46826 | -71.22814 | 14101 ft | 263 kts | 289° |
| 2026-05-04 20:38 | 21.47381 | -71.24689 | 14101 ft | 264 kts | 290° |
| 2026-05-04 20:38 | 21.47938 | -71.26570 | 14100 ft | 264 kts | 290° |
| 2026-05-04 20:38 | 21.48496 | -71.28454 | 14100 ft | 265 kts | 290° |
| 2026-05-04 20:38 | 21.49053 | -71.30336 | 14100 ft | 265 kts | 290° |
| 2026-05-04 20:39 | 21.49611 | -71.32220 | 14100 ft | 265 kts | 290° |
| 2026-05-04 20:39 | 21.50159 | -71.34080 | 14100 ft | 264 kts | 290° |
| 2026-05-04 20:39 | 21.50719 | -71.35962 | 14101 ft | 265 kts | 290° |
| 2026-05-04 20:39 | 21.51276 | -71.37849 | 14100 ft | 265 kts | 290° |
| 2026-05-04 20:40 | 21.51830 | -71.39732 | 14101 ft | 265 kts | 290° |
| 2026-05-04 20:40 | 21.52386 | -71.41616 | 14100 ft | 265 kts | 290° |
| 2026-05-04 20:40 | 21.52941 | -71.43491 | 14023 ft | 262 kts | 290° |
| 2026-05-04 20:40 | 21.53497 | -71.45370 | 13751 ft | 267 kts | 290° |
| 2026-05-04 20:41 | 21.54062 | -71.47289 | 13442 ft | 271 kts | 289° |
| 2026-05-04 20:41 | 21.54625 | -71.49211 | 13155 ft | 275 kts | 289° |
| 2026-05-04 20:41 | 21.55202 | -71.51175 | 12813 ft | 277 kts | 290° |
| 2026-05-04 20:41 | 21.55786 | -71.53163 | 12435 ft | 280 kts | 289° |
| 2026-05-04 20:42 | 21.56374 | -71.55172 | 12058 ft | 283 kts | 289° |
| 2026-05-04 20:42 | 21.56897 | -71.57217 | 11682 ft | 284 kts | 286° |
| 2026-05-04 20:42 | 21.57379 | -71.59281 | 11305 ft | 285 kts | 286° |
| 2026-05-04 20:42 | 21.57875 | -71.61344 | 10924 ft | 285 kts | 287° |
| 2026-05-04 20:43 | 21.58316 | -71.63393 | 10551 ft | 284 kts | 277° |
| 2026-05-04 20:43 | 21.58232 | -71.65502 | 10178 ft | 283 kts | 265° |
| 2026-05-04 20:43 | 21.58030 | -71.67607 | 9808 ft | 284 kts | 264° |
| 2026-05-04 20:43 | 21.57803 | -71.69714 | 9426 ft | 283 kts | 264° |
| 2026-05-04 20:44 | 21.57565 | -71.71810 | 9053 ft | 282 kts | 264° |
| 2026-05-04 20:44 | 21.57322 | -71.73897 | 8675 ft | 281 kts | 263° |
| 2026-05-04 20:44 | 21.57076 | -71.75980 | 8298 ft | 280 kts | 263° |
| 2026-05-04 20:44 | 21.56828 | -71.78059 | 7921 ft | 280 kts | 263° |
| 2026-05-04 20:45 | 21.56584 | -71.80115 | 7677 ft | 274 kts | 263° |
| 2026-05-04 20:45 | 21.56348 | -71.82100 | 7476 ft | 268 kts | 263° |
| 2026-05-04 20:45 | 21.56114 | -71.84086 | 7281 ft | 266 kts | 264° |
| 2026-05-04 20:45 | 21.55902 | -71.86057 | 7076 ft | 265 kts | 264° |
| 2026-05-04 20:46 | 21.55687 | -71.88019 | 6875 ft | 264 kts | 264° |
| 2026-05-04 20:46 | 21.55465 | -71.89972 | 6675 ft | 263 kts | 264° |
| 2026-05-04 20:46 | 21.55238 | -71.91918 | 6468 ft | 262 kts | 263° |
| 2026-05-04 20:46 | 21.55010 | -71.93859 | 6282 ft | 261 kts | 263° |
| 2026-05-04 20:47 | 21.54782 | -71.95782 | 6181 ft | 257 kts | 263° |
| 2026-05-04 20:47 | 21.54556 | -71.97671 | 6134 ft | 251 kts | 263° |
| 2026-05-04 20:47 | 21.54333 | -71.99492 | 6113 ft | 246 kts | 263° |
| 2026-05-04 20:47 | 21.54095 | -72.01295 | 6102 ft | 242 kts | 263° |
| 2026-05-04 20:48 | 21.53869 | -72.03071 | 6093 ft | 238 kts | 263° |
| 2026-05-04 20:48 | 21.53653 | -72.04825 | 6092 ft | 235 kts | 263° |
| 2026-05-04 20:48 | 21.53443 | -72.06563 | 6096 ft | 235 kts | 263° |
| 2026-05-04 20:48 | 21.53285 | -72.08353 | 6097 ft | 244 kts | 267° |
| 2026-05-04 20:49 | 21.53180 | -72.10200 | 6096 ft | 251 kts | 268° |
| 2026-05-04 20:49 | 21.53092 | -72.12087 | 6092 ft | 255 kts | 268° |
| 2026-05-04 20:49 | 21.53011 | -72.14002 | 6095 ft | 258 kts | 268° |
| 2026-05-04 20:49 | 21.52936 | -72.15911 | 6096 ft | 260 kts | 269° |
| 2026-05-04 20:50 | 21.52857 | -72.17860 | 6094 ft | 262 kts | 269° |
| 2026-05-04 20:50 | 21.52779 | -72.19852 | 5932 ft | 270 kts | 269° |
| 2026-05-04 20:50 | 21.52705 | -72.21890 | 5684 ft | 272 kts | 269° |
| 2026-05-04 20:50 | 21.52635 | -72.23915 | 5428 ft | 271 kts | 269° |
| 2026-05-04 20:51 | 21.52565 | -72.25936 | 5180 ft | 270 kts | 269° |
| 2026-05-04 20:51 | 21.52493 | -72.27945 | 4929 ft | 269 kts | 269° |
| 2026-05-04 20:51 | 21.52420 | -72.29944 | 4677 ft | 267 kts | 269° |
| 2026-05-04 20:51 | 21.52350 | -72.31926 | 4424 ft | 264 kts | 269° |
| 2026-05-04 20:52 | 21.52278 | -72.33891 | 4173 ft | 263 kts | 269° |
| 2026-05-04 20:52 | 21.52205 | -72.35849 | 3923 ft | 261 kts | 269° |
| 2026-05-04 20:52 | 21.52157 | -72.37141 | 3759 ft | 261 kts | 269° |
| 2026-05-04 20:52 | 21.52065 | -72.39737 | 3419 ft | 259 kts | 269° |
| 2026-05-04 20:53 | 21.52018 | -72.41018 | 3253 ft | 259 kts | 269° |
| 2026-05-04 20:53 | 21.51928 | -72.43571 | 2916 ft | 258 kts | 269° |
| 2026-05-04 20:53 | 21.51923 | -72.44856 | 2747 ft | 252 kts | 278° |
| 2026-05-04 20:53 | 21.52589 | -72.46536 | 2584 ft | 242 kts | 314° |
| 2026-05-04 20:54 | 21.53948 | -72.47460 | 2466 ft | 228 kts | 350° |
| 2026-05-04 20:54 | 21.55877 | -72.47086 | 2298 ft | 213 kts | 39° |
| 2026-05-04 20:54 | 21.56601 | -72.46363 | 2219 ft | 210 kts | 47° |
| 2026-05-04 20:54 | 21.57644 | -72.45278 | 2152 ft | 207 kts | 40° |
| 2026-05-04 20:55 | 21.58813 | -72.44422 | 2119 ft | 204 kts | 35° |
| 2026-05-04 20:55 | 21.59888 | -72.43483 | 2106 ft | 196 kts | 45° |
| 2026-05-04 20:55 | 21.61095 | -72.42843 | 2045 ft | 198 kts | 16° |
| 2026-05-04 20:55 | 21.62461 | -72.42505 | 1909 ft | 202 kts | 18° |
| 2026-05-04 20:56 | 21.63698 | -72.41907 | 1987 ft | 187 kts | 29° |
| 2026-05-04 20:56 | 21.64851 | -72.41322 | 2056 ft | 188 kts | 27° |
| 2026-05-04 20:56 | 21.66105 | -72.40747 | 1787 ft | 200 kts | 25° |
| 2026-05-04 20:56 | 21.67392 | -72.40240 | 1880 ft | 193 kts | 21° |
| 2026-05-04 20:57 | 21.68662 | -72.39770 | 1750 ft | 197 kts | 23° |
| 2026-05-04 20:57 | 21.69929 | -72.39274 | 1724 ft | 195 kts | 24° |
| 2026-05-04 20:57 | 21.71188 | -72.38785 | 1792 ft | 178 kts | 23° |
| 2026-05-04 20:57 | 21.72323 | -72.38366 | 1834 ft | 170 kts | 22° |
| 2026-05-04 20:58 | 21.73423 | -72.37980 | 1874 ft | 159 kts | 21° |
| 2026-05-04 20:58 | 21.74386 | -72.37653 | 2028 ft | 140 kts | 27° |
| 2026-05-04 20:58 | 21.75057 | -72.36948 | 1927 ft | 134 kts | 63° |
| 2026-05-04 20:58 | 21.75499 | -72.36075 | 1835 ft | 134 kts | 62° |
| 2026-05-04 20:59 | 21.75940 | -72.35201 | 1680 ft | 129 kts | 63° |
| 2026-05-04 20:59 | 21.76321 | -72.34414 | 1583 ft | 113 kts | 63° |
| 2026-05-04 20:59 | 21.76691 | -72.33672 | 1384 ft | 110 kts | 62° |
| 2026-05-04 20:59 | 21.77056 | -72.32947 | 1207 ft | 109 kts | 64° |
| 2026-05-04 21:00 | 21.77344 | -72.32195 | 1005 ft | 114 kts | 73° |
| 2026-05-04 21:00 | 21.77486 | -72.31341 | 792 ft | 115 kts | 82° |
| 2026-05-04 21:00 | 21.77554 | -72.30487 | 558 ft | 115 kts | 91° |
| 2026-05-04 21:00 | 21.77508 | -72.29626 | 356 ft | 114 kts | 89° |
| 2026-05-04 21:01 | 21.77468 | -72.28784 | 158 ft | 111 kts | 91° |
| 2026-05-04 21:01 | 21.77430 | -72.27991 | 20 ft | 100 kts | 93° |
| 2026-05-04 21:01 | 21.77400 | -72.27359 | 10 ft | 51 kts | 94° |
| 2026-05-04 21:01 | 21.77394 | -72.27236 | 8 ft | 10 kts | 79° |
| 2026-05-04 21:02 | 21.77435 | -72.27202 | 9 ft | 7 kts | 0° |
| 2026-05-04 21:02 | 21.77481 | -72.27199 | 9 ft | 7 kts | 4° |
| 2026-05-04 21:02 | 21.77511 | -72.27171 | 9 ft | 5 kts | 75° |
| 2026-05-04 21:02 | 21.77512 | -72.27131 | 8 ft | 6 kts | 92° |
| 2026-05-04 21:03 | 21.77510 | -72.27088 | 8 ft | 6 kts | 92° |
| 2026-05-04 21:03 | 21.77522 | -72.27049 | 7 ft | 6 kts | 69° |
| 2026-05-04 21:03 | 21.77521 | -72.27008 | 7 ft | 6 kts | 94° |
| 2026-05-04 21:03 | 21.77525 | -72.26968 | 7 ft | 5 kts | 62° |
| 2026-05-04 21:04 | 21.77556 | -72.26959 | 7 ft | 4 kts | 359° |
| 2026-05-04 21:04 | 21.77578 | -72.26972 | 7 ft | 4 kts | 303° |
| 2026-05-04 21:04 | 21.77586 | -72.27001 | 7 ft | 5 kts | 279° |
| 2026-05-04 21:04 | 21.77575 | -72.27028 | 7 ft | 4 kts | 199° |
| 2026-05-04 21:05 | 21.77568 | -72.27029 | 7 ft | 0 kts | 187° |